TOM910 EDDF-EGBB
Flight info
| Callsign | TOM910 |
|---|---|
| Flight time | 0h 55m |
| Altitude | 38000 |
| Route | OBOKA3W/25C OBOKA Z29 TORNU DCT GALSO Q63 ERING L179 LAM L610 HEMEL |
| Aircraft | B738/M-SDE2E3FGHIRWXY/LB1 |
Departure
| Time | 2026-05-04 07:45 |
|---|---|
| Airport | Frankfurt Main Airport (EDDF) |
Arrival
| Time | 2026-05-04 08:41 |
|---|---|
| Airport | Birmingham Airport (EGBB) |
| Time | Latitude | Longitude | Altitude | Speed | Heading |
|---|---|---|---|---|---|
| 2026-05-04 07:17 | 50.04932 | 8.58940 | 351 ft | 0 kts | 161° |
| 2026-05-04 07:38 | 50.04996 | 8.58952 | 350 ft | 0 kts | 249° |
| 2026-05-04 07:42 | 50.04989 | 8.58924 | 348 ft | 7 kts | 250° |
| 2026-05-04 07:42 | 50.04967 | 8.58832 | 352 ft | 9 kts | 250° |
| 2026-05-04 07:42 | 50.04945 | 8.58738 | 353 ft | 9 kts | 250° |
| 2026-05-04 07:42 | 50.04898 | 8.58684 | 345 ft | 9 kts | 180° |
| 2026-05-04 07:43 | 50.04839 | 8.58713 | 348 ft | 9 kts | 160° |
| 2026-05-04 07:43 | 50.04778 | 8.58747 | 345 ft | 10 kts | 160° |
| 2026-05-04 07:43 | 50.04710 | 8.58770 | 345 ft | 11 kts | 186° |
| 2026-05-04 07:43 | 50.04646 | 8.58758 | 345 ft | 8 kts | 188° |
| 2026-05-04 07:44 | 50.04589 | 8.58730 | 348 ft | 10 kts | 212° |
| 2026-05-04 07:44 | 50.04528 | 8.58646 | 353 ft | 13 kts | 223° |
| 2026-05-04 07:44 | 50.04475 | 8.58540 | 348 ft | 12 kts | 245° |
| 2026-05-04 07:44 | 50.04463 | 8.58490 | 348 ft | 0 kts | 250° |
| 2026-05-04 07:45 | 50.04442 | 8.58396 | 353 ft | 37 kts | 250° |
| 2026-05-04 07:45 | 50.04241 | 8.57552 | 347 ft | 126 kts | 249° |
| 2026-05-04 07:45 | 50.03857 | 8.55897 | 448 ft | 191 kts | 250° |
| 2026-05-04 07:45 | 50.03380 | 8.53900 | 1345 ft | 199 kts | 249° |
| 2026-05-04 07:46 | 50.02898 | 8.51851 | 2399 ft | 203 kts | 250° |
| 2026-05-04 07:46 | 50.02346 | 8.49823 | 3289 ft | 203 kts | 235° |
| 2026-05-04 07:46 | 50.01272 | 8.48413 | 4106 ft | 208 kts | 204° |
| 2026-05-04 07:46 | 49.99844 | 8.47889 | 4951 ft | 213 kts | 191° |
| 2026-05-04 07:47 | 49.98365 | 8.47555 | 5818 ft | 215 kts | 190° |
| 2026-05-04 07:47 | 49.96886 | 8.47237 | 6557 ft | 218 kts | 190° |
| 2026-05-04 07:47 | 49.95367 | 8.46810 | 6965 ft | 231 kts | 198° |
| 2026-05-04 07:49 | 49.88594 | 8.33834 | 7021 ft | 264 kts | 273° |
| 2026-05-04 07:49 | 49.88761 | 8.30967 | 7031 ft | 269 kts | 274° |
| 2026-05-04 07:49 | 49.88949 | 8.28077 | 7022 ft | 268 kts | 277° |
| 2026-05-04 07:50 | 49.89599 | 8.25379 | 7016 ft | 270 kts | 300° |
| 2026-05-04 07:50 | 49.90699 | 8.23017 | 7030 ft | 268 kts | 304° |
| 2026-05-04 07:50 | 49.91823 | 8.20706 | 7023 ft | 268 kts | 304° |
| 2026-05-04 07:50 | 49.92944 | 8.18388 | 7040 ft | 270 kts | 304° |
| 2026-05-04 07:51 | 49.94079 | 8.16042 | 7032 ft | 275 kts | 306° |
| 2026-05-04 07:51 | 49.95413 | 8.13950 | 7021 ft | 276 kts | 316° |
| 2026-05-04 07:51 | 49.96892 | 8.12001 | 7028 ft | 274 kts | 317° |
| 2026-05-04 07:51 | 49.98345 | 8.10133 | 7018 ft | 273 kts | 317° |
| 2026-05-04 07:52 | 49.99805 | 8.08251 | 7034 ft | 272 kts | 317° |
| 2026-05-04 07:52 | 50.01261 | 8.06351 | 7018 ft | 274 kts | 317° |
| 2026-05-04 07:52 | 50.02732 | 8.04413 | 7227 ft | 280 kts | 316° |
| 2026-05-04 07:52 | 50.04227 | 8.02431 | 8167 ft | 281 kts | 316° |
| 2026-05-04 07:53 | 50.05709 | 8.00461 | 9188 ft | 281 kts | 316° |
| 2026-05-04 07:54 | 50.17902 | 7.84065 | 13319 ft | 368 kts | 316° |
| 2026-05-04 07:55 | 50.19857 | 7.81426 | 14065 ft | 374 kts | 316° |
| 2026-05-04 07:55 | 50.21839 | 7.78745 | 14712 ft | 380 kts | 316° |
| 2026-05-04 07:55 | 50.23844 | 7.76029 | 15419 ft | 383 kts | 316° |
| 2026-05-04 07:55 | 50.25936 | 7.73392 | 16086 ft | 391 kts | 325° |
| 2026-05-04 07:56 | 50.28435 | 7.71557 | 16772 ft | 398 kts | 336° |
| 2026-05-04 07:56 | 50.30990 | 7.69975 | 17506 ft | 401 kts | 335° |
| 2026-05-04 07:56 | 50.33584 | 7.68270 | 18105 ft | 407 kts | 334° |
| 2026-05-04 07:56 | 50.36206 | 7.66485 | 18688 ft | 411 kts | 333° |
| 2026-05-04 07:57 | 50.38832 | 7.64673 | 19298 ft | 414 kts | 333° |
| 2026-05-04 07:57 | 50.41481 | 7.62846 | 19896 ft | 417 kts | 333° |
| 2026-05-04 07:57 | 50.44158 | 7.61000 | 20466 ft | 421 kts | 333° |
| 2026-05-04 07:57 | 50.48952 | 7.57694 | 21475 ft | 427 kts | 332° |
| 2026-05-04 07:58 | 50.59829 | 7.49527 | 23589 ft | 435 kts | 322° |
| 2026-05-04 07:58 | 50.69836 | 7.38511 | 25372 ft | 443 kts | 321° |
| 2026-05-04 07:58 | 50.77971 | 7.24689 | 26964 ft | 424 kts | 287° |
| 2026-05-04 07:58 | 50.82495 | 7.08976 | 30852 ft | 381 kts | 292° |
| 2026-05-04 07:59 | 50.87380 | 6.94001 | 32218 ft | 390 kts | 291° |
| 2026-05-04 07:59 | 50.92447 | 6.78209 | 32955 ft | 411 kts | 291° |
| 2026-05-04 07:59 | 50.97714 | 6.61743 | 33851 ft | 423 kts | 291° |
| 2026-05-04 07:59 | 51.03067 | 6.44902 | 34700 ft | 431 kts | 291° |
| 2026-05-04 08:00 | 51.08490 | 6.27711 | 35417 ft | 438 kts | 291° |
| 2026-05-04 08:00 | 51.13895 | 6.10384 | 36568 ft | 433 kts | 289° |
| 2026-05-04 08:00 | 51.16938 | 5.91936 | 37248 ft | 430 kts | 277° |
| 2026-05-04 08:02 | 51.44311 | 4.61912 | 37974 ft | 430 kts | 284° |
| 2026-05-04 08:02 | 51.51799 | 4.25514 | 38091 ft | 437 kts | 283° |
| 2026-05-04 08:03 | 51.59460 | 3.87619 | 38007 ft | 447 kts | 283° |
| 2026-05-04 08:03 | 51.67036 | 3.49407 | 37971 ft | 443 kts | 283° |
| 2026-05-04 08:04 | 51.73126 | 3.11991 | 37661 ft | 427 kts | 261° |
| 2026-05-04 08:04 | 51.71202 | 2.93541 | 38133 ft | 417 kts | 259° |
| 2026-05-04 08:04 | 51.69613 | 2.74688 | 38012 ft | 430 kts | 259° |
| 2026-05-04 08:05 | 51.66076 | 2.35751 | 38014 ft | 446 kts | 259° |
| 2026-05-04 08:05 | 51.62383 | 1.96300 | 37980 ft | 442 kts | 260° |
| 2026-05-04 08:06 | 51.58995 | 1.57415 | 37904 ft | 436 kts | 269° |
| 2026-05-04 08:06 | 51.60096 | 1.38139 | 38071 ft | 431 kts | 273° |
| 2026-05-04 08:06 | 51.60742 | 1.22496 | 38024 ft | 436 kts | 271° |
| 2026-05-04 08:08 | 51.62045 | 0.87709 | 37896 ft | 452 kts | 272° |
| 2026-05-04 08:08 | 51.62261 | 0.82630 | 37214 ft | 458 kts | 272° |
| 2026-05-04 08:10 | 51.63689 | 0.42872 | 31957 ft | 441 kts | 269° |
| 2026-05-04 08:11 | 51.63854 | 0.37988 | 31613 ft | 431 kts | 269° |
| 2026-05-04 08:11 | 51.64174 | 0.28421 | 30534 ft | 421 kts | 268° |
| 2026-05-04 08:11 | 51.64329 | 0.23708 | 29987 ft | 417 kts | 267° |
| 2026-05-04 08:12 | 51.64503 | 0.19070 | 29311 ft | 416 kts | 271° |
| 2026-05-04 08:12 | 51.65024 | 0.14562 | 28975 ft | 411 kts | 278° |
| 2026-05-04 08:12 | 51.65931 | 0.10176 | 28288 ft | 416 kts | 288° |
| 2026-05-04 08:12 | 51.67131 | 0.06000 | 27927 ft | 408 kts | 289° |
| 2026-05-04 08:13 | 51.68331 | 0.01855 | 27393 ft | 404 kts | 289° |
| 2026-05-04 08:13 | 51.69506 | -0.02220 | 26883 ft | 400 kts | 290° |
| 2026-05-04 08:13 | 51.70663 | -0.06282 | 26444 ft | 395 kts | 290° |
| 2026-05-04 08:13 | 51.71800 | -0.10313 | 25909 ft | 392 kts | 290° |
| 2026-05-04 08:14 | 51.72920 | -0.14307 | 25450 ft | 388 kts | 290° |
| 2026-05-04 08:14 | 51.74011 | -0.18209 | 24961 ft | 385 kts | 290° |
| 2026-05-04 08:14 | 51.75045 | -0.21913 | 24527 ft | 382 kts | 290° |
| 2026-05-04 08:16 | 51.84508 | -0.45995 | 21388 ft | 377 kts | 327° |
| 2026-05-04 08:16 | 51.86820 | -0.48141 | 21084 ft | 388 kts | 328° |
| 2026-05-04 08:16 | 51.89184 | -0.50334 | 20717 ft | 393 kts | 327° |
| 2026-05-04 08:17 | 51.91523 | -0.52572 | 20380 ft | 389 kts | 327° |
| 2026-05-04 08:17 | 51.93834 | -0.54827 | 20028 ft | 385 kts | 326° |
| 2026-05-04 08:17 | 51.96114 | -0.57066 | 19697 ft | 382 kts | 327° |
| 2026-05-04 08:17 | 51.98388 | -0.59292 | 19358 ft | 380 kts | 327° |
| 2026-05-04 08:19 | 52.14012 | -0.74633 | 16995 ft | 370 kts | 327° |
| 2026-05-04 08:19 | 52.16203 | -0.76795 | 16676 ft | 368 kts | 327° |
| 2026-05-04 08:20 | 52.18392 | -0.78957 | 16354 ft | 367 kts | 327° |
| 2026-05-04 08:20 | 52.20572 | -0.81112 | 16046 ft | 365 kts | 327° |
| 2026-05-04 08:20 | 52.22729 | -0.83286 | 15713 ft | 363 kts | 323° |
| 2026-05-04 08:20 | 52.24457 | -0.86220 | 15367 ft | 358 kts | 299° |
| 2026-05-04 08:21 | 52.25473 | -0.89863 | 15077 ft | 353 kts | 284° |
| 2026-05-04 08:21 | 52.26038 | -0.93742 | 14856 ft | 349 kts | 281° |
| 2026-05-04 08:21 | 52.26535 | -0.97626 | 14493 ft | 350 kts | 280° |
| 2026-05-04 08:21 | 52.27029 | -1.01519 | 14215 ft | 349 kts | 280° |
| 2026-05-04 08:22 | 52.27533 | -1.05412 | 13917 ft | 349 kts | 280° |
| 2026-05-04 08:22 | 52.28038 | -1.09231 | 13583 ft | 348 kts | 281° |
| 2026-05-04 08:24 | 52.31503 | -1.34924 | 11516 ft | 310 kts | 281° |
| 2026-05-04 08:24 | 52.31959 | -1.38333 | 11249 ft | 304 kts | 281° |
| 2026-05-04 08:24 | 52.32261 | -1.40598 | 11070 ft | 300 kts | 281° |
| 2026-05-04 08:24 | 52.32696 | -1.43866 | 10814 ft | 295 kts | 281° |
| 2026-05-04 08:25 | 52.33130 | -1.47134 | 10558 ft | 290 kts | 281° |
| 2026-05-04 08:25 | 52.33554 | -1.50333 | 10297 ft | 283 kts | 281° |
| 2026-05-04 08:25 | 52.33969 | -1.53462 | 9985 ft | 280 kts | 281° |
| 2026-05-04 08:25 | 52.34372 | -1.56503 | 9836 ft | 272 kts | 281° |
| 2026-05-04 08:26 | 52.34770 | -1.59531 | 9571 ft | 269 kts | 281° |
| 2026-05-04 08:27 | 52.35174 | -1.80279 | 8650 ft | 264 kts | 266° |
| 2026-05-04 08:28 | 52.35052 | -1.83258 | 8529 ft | 259 kts | 266° |
| 2026-05-04 08:28 | 52.34934 | -1.86203 | 8095 ft | 258 kts | 266° |
| 2026-05-04 08:28 | 52.34820 | -1.89119 | 7673 ft | 255 kts | 266° |
| 2026-05-04 08:28 | 52.34706 | -1.92026 | 7176 ft | 256 kts | 266° |
| 2026-05-04 08:29 | 52.34593 | -1.94946 | 6667 ft | 258 kts | 266° |
| 2026-05-04 08:29 | 52.34480 | -1.97876 | 6237 ft | 256 kts | 266° |
| 2026-05-04 08:29 | 52.34367 | -2.00740 | 5695 ft | 258 kts | 266° |
| 2026-05-04 08:31 | 52.40546 | -2.09513 | 3624 ft | 241 kts | 55° |
| 2026-05-04 08:33 | 52.39091 | -1.90909 | 2058 ft | 242 kts | 102° |
| 2026-05-04 08:33 | 52.38692 | -1.88262 | 1994 ft | 243 kts | 102° |
| 2026-05-04 08:35 | 52.30526 | -1.76107 | 1994 ft | 225 kts | 140° |
| 2026-05-04 08:35 | 52.29303 | -1.74553 | 1987 ft | 223 kts | 139° |
| 2026-05-04 08:35 | 52.28186 | -1.72909 | 1961 ft | 210 kts | 121° |
| 2026-05-04 08:35 | 52.27788 | -1.70772 | 1991 ft | 191 kts | 85° |
| 2026-05-04 08:37 | 52.32303 | -1.62573 | 2018 ft | 162 kts | 358° |
| 2026-05-04 08:37 | 52.33412 | -1.62739 | 1994 ft | 158 kts | 358° |
| 2026-05-04 08:37 | 52.34499 | -1.62957 | 1972 ft | 160 kts | 347° |
| 2026-05-04 08:38 | 52.35478 | -1.63833 | 2029 ft | 162 kts | 331° |
| 2026-05-04 08:38 | 52.36450 | -1.64847 | 2002 ft | 167 kts | 330° |
| 2026-05-04 08:38 | 52.37398 | -1.65885 | 1997 ft | 163 kts | 329° |
| 2026-05-04 08:40 | 52.43160 | -1.72321 | 703 ft | 138 kts | 327° |
| 2026-05-04 08:40 | 52.43931 | -1.73194 | 558 ft | 133 kts | 329° |
| 2026-05-04 08:40 | 52.44677 | -1.74026 | 358 ft | 123 kts | 329° |
| 2026-05-04 08:41 | 52.45296 | -1.74708 | 324 ft | 81 kts | 326° |
| 2026-05-04 08:41 | 52.45674 | -1.75124 | 327 ft | 53 kts | 327° |
| 2026-05-04 08:41 | 52.45967 | -1.75448 | 322 ft | 49 kts | 327° |
| 2026-05-04 08:41 | 52.46135 | -1.75599 | 315 ft | 19 kts | 9° |
| 2026-05-04 08:42 | 52.46217 | -1.75448 | 313 ft | 18 kts | 81° |
| 2026-05-04 08:42 | 52.46134 | -1.75305 | 315 ft | 18 kts | 142° |
| 2026-05-04 08:42 | 52.46034 | -1.75192 | 320 ft | 17 kts | 147° |
| 2026-05-04 08:42 | 52.45935 | -1.75087 | 322 ft | 17 kts | 146° |
| 2026-05-04 08:43 | 52.45828 | -1.74970 | 321 ft | 20 kts | 146° |
| 2026-05-04 08:43 | 52.45707 | -1.74836 | 325 ft | 22 kts | 146° |
| 2026-05-04 08:43 | 52.45575 | -1.74688 | 326 ft | 23 kts | 146° |
| 2026-05-04 08:43 | 52.45460 | -1.74519 | 325 ft | 22 kts | 122° |
| 2026-05-04 08:44 | 52.45389 | -1.74296 | 329 ft | 22 kts | 116° |
| 2026-05-04 08:44 | 52.45324 | -1.74076 | 329 ft | 21 kts | 115° |
| 2026-05-04 08:46 | 52.45237 | -1.73609 | 330 ft | 3 kts | 327° |
| 2026-05-04 08:46 | 52.45245 | -1.73618 | 330 ft | 0 kts | 326° |